• Join FlightAware (Why Join?)
  • Login
  • US Flag 
10:47PM EDT


 

Airport Tracker/Info


-or-


 

Live Flight TrackerFlight Track Log ✈ SWA714 ✈ 11-Apr-2013 ✈ KSAT - KDAL

Flight Track Log - Related Links

Times and Time Zones

All times are in EDT time to prevent confusion due to time zone crossing. See the SWA714 flight status page for this flight to view local times or setup timezone preferences in your user account.

Time Position Orientation Groundspeed Altitude Reporting Facility
EDT Latitude Longitude Course Direction KTS MPH feet Rate Location/Type
04:14PM 29.5503 -98.4439 31° Northeast 176 203 1,400  Level Houston Center
04:14PM 29.5758 -98.4264 31° Northeast 192 221 2,700 2,340 Climbing Houston Center
04:15PM 29.6456 -98.4300 357° North 260 299 5,200 2,640 Climbing Houston Center
04:16PM 29.7061 -98.4708 330° Northwest 258 297 8,100 2,340 Climbing Houston Center
04:18PM 29.7972 -98.4692 North 300 345 10,600 1,920 Climbing Houston Center
04:19PM 29.9025 -98.4433 12° North 359 413 12,500 2,400 Climbing Houston Center
04:20PM 30.0161 -98.4147 12° North 389 448 15,600 2,520 Climbing Houston Center
04:21PM 30.1225 -98.3886 12° North 396 456 17,800 2,400 Climbing Houston Center
04:22PM 30.2431 -98.3731 North 405 466 20,600 2,580 Climbing Houston Center
04:23PM 30.3567 -98.3572 North 405 466 23,200 2,100 Climbing Houston Center
04:24PM 30.4683 -98.3403 North 403 464 25,000 1,740 Climbing Houston Center
04:25PM 30.5817 -98.3233 North 404 465 26,800 1,440 Climbing Houston Center
04:26PM 30.6989 -98.3056 North 415 478 28,100 1,020 Climbing Houston Center
04:27PM 30.8164 -98.2508 22° Northeast 449 517 29,000 420 Climbing Houston Center
04:28PM 30.9342 -98.1906 24° Northeast 457 526 29,000  Level Houston Center
04:29PM 31.0503 -98.1314 24° Northeast 452 520 29,000  Level Houston Center
04:30PM 31.1847 -98.0617 24° Northeast 447 514 29,000  Level Houston Center
04:31PM 31.2975 -98.0025 24° Northeast 441 507 29,000  Level Houston Center
04:32PM 31.4167 -97.9417 24° Northeast 436 502 29,000  Level Fort Worth Center
04:33PM 31.5297 -97.8836 24° Northeast 436 502 29,000 -1,080 Level Fort Worth Center
04:34PM 31.6406 -97.8258 24° Northeast 431 496 26,900 -2,460 Descending Fort Worth Center
04:35PM 31.7494 -97.7675 24° Northeast 425 489 24,100 -2,700 Descending Fort Worth Center
04:36PM 31.8517 -97.7142 24° Northeast 412 474 21,500 -2,640 Descending Fort Worth Center
04:37PM 31.9500 -97.6656 23° Northeast 401 461 18,900 -2,400 Descending Fort Worth Center
04:38PM 32.0356 -97.6167 26° Northeast 376 433 16,700 -2,400 Descending Fort Worth Center
04:39PM 32.1381 -97.5631 24° Northeast 371 427 14,200 -2,160 Descending Fort Worth Center
04:40PM 32.2194 -97.5189 25° Northeast 360 414 12,400 -1,140 Descending Fort Worth Center
04:41PM 32.3053 -97.4625 29° Northeast 329 379 12,000 -600 Descending Fort Worth Center
04:42PM 32.3636 -97.3986 43° Northeast 316 364 11,200 -960 Descending Fort Worth Center
04:43PM 32.3886 -97.2856 75° East 306 352 10,100 -1,200 Descending Fort Worth Center
04:44PM 32.4072 -97.1944 76° East 312 359 8,800 -1,500 Descending Fort Worth Center
04:45PM 32.4300 -97.0886 76° East 312 359 7,200 -1,440 Descending Fort Worth Center
04:46PM 32.4464 -97.0047 77° East 295 339 6,000 -1,380 Descending Fort Worth Center
04:47PM 32.4650 -96.9014 78° East 290 334 4,500 -1,020 Descending Fort Worth Center
04:48PM 32.5231 -96.8517 36° Northeast 242 278 4,000 -300 Descending Fort Worth Center
04:49PM 32.5836 -96.8317 16° North 242 278 4,000 -480 Level Fort Worth Center
04:50PM 32.6544 -96.8139 12° North 242 278 3,100 -660 Descending Fort Worth Center
04:51PM 32.7108 -96.8086 North 232 267 2,700 -300 Descending Fort Worth Center
04:52PM 32.7714 -96.8031 North 201 231 2,500 -720 Descending Fort Worth Center
04:53PM 32.8167 -96.8167 346° North 155 178 1,300 -1,260 Descending Dallas / Fort Worth TRACON
04:55PM 32.8333 -96.8500 North  Level FlightAware Approximate
05:02PM 32.8471 -96.8518 North  Level Estimated
05:03PM 32.8471 -96.8518 North  Level Estimated